Time;durP1;ratioP1;P1;durP2;ratioP2;P2;SDS_P1;SDS_P2;PMS_P1;PMS_P2;Temp;Humidity;BMP_temperature;BMP_pressure;BME280_temperature;BME280_humidity;BME280_pressure;Samples;Min_cycle;Max_cycle;Signal;HPM_P1;HPM_P2
2022/02/16 00:01:08;;;;;;;3.58;0.80;;;7.60;99.90;;;;;;5052854;28;20197;-80
2022/02/16 00:03:34;;;;;;;2.10;0.70;;;7.70;99.90;;;;;;5052781;28;20268;-79
2022/02/16 00:05:59;;;;;;;1.57;0.60;;;7.70;99.90;;;;;;5052755;28;20265;-80
2022/02/16 00:08:25;;;;;;;0.97;0.50;;;7.70;99.90;;;;;;5052600;28;20917;-79
2022/02/16 00:10:51;;;;;;;0.70;0.60;;;7.60;99.90;;;;;;5051952;28;20296;-79
2022/02/16 00:13:17;;;;;;;1.00;0.60;;;7.60;99.90;;;;;;5051436;28;20658;-80
2022/02/16 00:15:43;;;;;;;0.60;0.50;;;7.70;99.90;;;;;;5052565;28;20533;-80
2022/02/16 00:18:08;;;;;;;0.90;0.50;;;7.70;99.90;;;;;;5052469;28;20178;-79
2022/02/16 00:20:35;;;;;;;0.70;0.50;;;7.70;99.90;;;;;;5051955;28;20252;-79
2022/02/16 00:23:01;;;;;;;1.08;0.50;;;7.70;99.90;;;;;;5052235;28;20174;-79
2022/02/16 00:25:27;;;;;;;0.70;0.50;;;7.80;99.90;;;;;;5054056;28;20181;-79
2022/02/16 00:27:52;;;;;;;0.70;0.60;;;7.80;99.90;;;;;;5056378;28;20752;-80
2022/02/16 00:30:18;;;;;;;0.80;0.60;;;7.90;99.90;;;;;;5054495;28;20205;-79
2022/02/16 00:32:44;;;;;;;0.80;0.60;;;7.80;99.90;;;;;;5055762;28;20205;-78
2022/02/16 00:35:10;;;;;;;0.77;0.57;;;7.80;99.90;;;;;;5056213;28;20202;-80
2022/02/16 00:37:35;;;;;;;1.13;0.80;;;7.80;99.90;;;;;;5055878;28;20178;-79
2022/02/16 00:40:02;;;;;;;0.60;0.60;;;7.80;99.90;;;;;;5055846;28;20201;-79
2022/02/16 00:42:28;;;;;;;1.40;0.50;;;7.80;99.90;;;;;;5054804;28;20800;-80
2022/02/16 00:44:53;;;;;;;0.60;0.50;;;7.70;99.90;;;;;;5056022;28;20181;-79
2022/02/16 00:47:19;;;;;;;0.70;0.60;;;7.80;99.90;;;;;;5054128;28;20213;-79
2022/02/16 00:49:44;;;;;;;0.80;0.60;;;7.80;99.90;;;;;;5054647;28;20198;-80
2022/02/16 00:52:10;;;;;;;0.90;0.60;;;7.80;99.90;;;;;;5056022;28;20236;-79
2022/02/16 00:54:37;;;;;;;0.80;0.60;;;7.80;99.90;;;;;;5055797;28;20244;-80
2022/02/16 00:57:04;;;;;;;0.60;0.50;;;7.80;99.90;;;;;;5056023;28;20182;-80
2022/02/16 00:59:30;;;;;;;0.60;0.40;;;7.90;99.90;;;;;;5054067;28;20198;-79
2022/02/16 01:01:55;;;;;;;1.35;0.52;;;7.90;99.90;;;;;;5055759;28;20181;-80
2022/02/16 01:04:23;;;;;;;1.03;0.60;;;8.00;99.90;;;;;;5055650;28;20261;-81
2022/02/16 01:06:50;;;;;;;1.73;0.68;;;8.00;99.90;;;;;;5055418;28;20205;-79
2022/02/16 01:09:16;;;;;;;0.75;0.55;;;8.00;99.90;;;;;;5055010;28;20255;-81
2022/02/16 01:11:42;;;;;;;0.75;0.55;;;8.10;99.90;;;;;;5055496;28;20176;-80
2022/02/16 01:14:08;;;;;;;0.77;0.60;;;8.00;99.90;;;;;;5055190;28;20202;-80
2022/02/16 01:16:35;;;;;;;0.70;0.50;;;7.90;99.90;;;;;;5054093;28;20197;-81
2022/02/16 01:19:04;;;;;;;0.60;0.50;;;8.00;99.90;;;;;;5054898;28;20760;-80
2022/02/16 01:21:30;;;;;;;0.70;0.50;;;8.00;99.90;;;;;;5055280;28;20308;-79
2022/02/16 01:23:55;;;;;;;0.70;0.50;;;8.00;99.90;;;;;;5054996;28;20182;-80
2022/02/16 01:26:23;;;;;;;0.50;0.50;;;8.00;99.90;;;;;;5054542;28;20193;-78
2022/02/16 01:28:49;;;;;;;0.65;0.50;;;8.00;99.90;;;;;;5054638;28;20180;-80
2022/02/16 01:31:15;;;;;;;0.70;0.50;;;8.00;99.90;;;;;;5055184;28;20186;-80
2022/02/16 01:33:40;;;;;;;1.10;0.50;;;8.10;99.90;;;;;;5054986;28;20601;-80
2022/02/16 01:36:06;;;;;;;0.80;0.50;;;8.10;99.90;;;;;;5054690;28;20174;-80
2022/02/16 01:38:33;;;;;;;1.10;0.50;;;8.10;99.90;;;;;;5054540;28;20701;-80
2022/02/16 01:40:58;;;;;;;0.75;0.50;;;8.10;99.90;;;;;;5054818;28;20191;-80
2022/02/16 01:43:24;;;;;;;1.40;0.50;;;8.10;99.90;;;;;;5055193;28;20530;-81
2022/02/16 01:45:50;;;;;;;0.70;0.60;;;8.10;99.90;;;;;;5054883;28;20459;-80
2022/02/16 01:48:15;;;;;;;0.50;0.50;;;8.20;99.90;;;;;;5055035;28;20178;-80
2022/02/16 01:50:41;;;;;;;0.60;0.50;;;8.20;99.90;;;;;;5054500;28;20186;-80
2022/02/16 01:53:07;;;;;;;0.70;0.60;;;8.10;99.90;;;;;;5054408;28;20182;-79
2022/02/16 01:55:33;;;;;;;1.10;0.60;;;8.10;99.90;;;;;;5054930;28;20538;-80
2022/02/16 01:57:59;;;;;;;0.77;0.53;;;8.10;99.90;;;;;;5054666;28;20178;-79
2022/02/16 02:00:25;;;;;;;1.40;0.70;;;8.10;99.90;;;;;;5054117;28;20435;-80
2022/02/16 02:02:51;;;;;;;0.70;0.60;;;8.10;99.90;;;;;;5054472;28;20186;-79
2022/02/16 02:05:17;;;;;;;0.50;0.50;;;8.10;99.90;;;;;;5054188;28;20428;-80
2022/02/16 02:07:43;;;;;;;0.60;0.50;;;8.10;99.90;;;;;;5053543;28;20190;-79
2022/02/16 02:10:09;;;;;;;0.67;0.50;;;8.10;99.90;;;;;;5053835;28;20675;-80
2022/02/16 02:12:44;;;;;;;0.70;0.52;;;8.20;99.90;;;;;;5054299;28;20427;-80
2022/02/16 02:15:10;;;;;;;0.98;0.70;;;8.20;99.90;;;;;;5054058;28;20695;-80
2022/02/16 02:17:36;;;;;;;0.60;0.50;;;8.20;99.90;;;;;;5054257;28;20232;-80
2022/02/16 02:20:02;;;;;;;0.90;0.60;;;8.20;99.90;;;;;;5053568;28;20472;-79
2022/02/16 02:22:28;;;;;;;0.90;0.52;;;8.20;99.90;;;;;;5054121;28;20174;-80
2022/02/16 02:24:53;;;;;;;0.77;0.60;;;8.10;99.90;;;;;;5054172;28;20523;-80
2022/02/16 02:27:19;;;;;;;0.77;0.53;;;8.20;99.90;;;;;;5053708;28;20240;-80
2022/02/16 02:29:44;;;;;;;0.87;0.60;;;8.20;99.90;;;;;;5052467;28;20562;-79
2022/02/16 02:32:14;;;;;;;3.23;0.60;;;8.10;99.90;;;;;;5053606;28;20240;-79
2022/02/16 02:34:40;;;;;;;0.63;0.50;;;8.10;99.90;;;;;;5054143;28;20205;-80
2022/02/16 02:37:05;;;;;;;1.23;0.60;;;8.20;99.90;;;;;;5053996;28;20513;-81
2022/02/16 02:39:31;;;;;;;1.10;0.60;;;8.20;99.90;;;;;;5053522;28;20197;-80
2022/02/16 02:41:57;;;;;;;0.73;0.50;;;8.20;99.90;;;;;;5053924;28;20182;-79
2022/02/16 02:44:22;;;;;;;1.10;0.70;;;8.10;99.90;;;;;;5053854;28;20667;-81
2022/02/16 02:46:48;;;;;;;0.67;0.50;;;8.10;99.90;;;;;;5053276;28;20193;-80
2022/02/16 02:49:13;;;;;;;0.57;0.50;;;8.10;99.90;;;;;;5052612;28;20249;-80
2022/02/16 02:51:39;;;;;;;0.70;0.60;;;8.10;99.90;;;;;;5052358;28;20235;-79
2022/02/16 02:54:04;;;;;;;0.80;0.60;;;8.10;99.90;;;;;;5052514;28;20213;-80
2022/02/16 02:56:30;;;;;;;0.60;0.50;;;8.10;99.90;;;;;;5035646;28;20178;-82
2022/02/16 02:58:55;;;;;;;0.60;0.50;;;8.10;99.90;;;;;;5053122;28;20178;-79
2022/02/16 03:01:21;;;;;;;0.60;0.50;;;8.20;99.90;;;;;;5053452;28;20581;-81
2022/02/16 03:03:47;;;;;;;0.77;0.50;;;8.10;99.90;;;;;;5053548;28;20190;-81
2022/02/16 03:06:12;;;;;;;1.47;0.70;;;8.20;99.90;;;;;;5053526;28;20263;-80
2022/02/16 03:08:38;;;;;;;0.83;0.60;;;8.10;99.90;;;;;;5053073;28;20698;-80
2022/02/16 03:11:04;;;;;;;0.73;0.57;;;8.10;99.90;;;;;;5052929;28;20220;-82
2022/02/16 03:13:30;;;;;;;1.00;0.60;;;8.20;99.90;;;;;;5052110;28;20535;-81
2022/02/16 03:15:56;;;;;;;1.45;0.60;;;8.20;99.90;;;;;;5053248;28;20416;-80
2022/02/16 03:18:22;;;;;;;0.60;0.50;;;8.30;99.90;;;;;;5053383;28;20211;-81
2022/02/16 03:20:49;;;;;;;0.70;0.60;;;8.30;99.90;;;;;;5052902;28;20601;-82
2022/02/16 03:23:17;;;;;;;1.08;0.50;;;8.30;99.90;;;;;;5052927;28;20200;-81
2022/02/16 03:25:43;;;;;;;0.70;0.60;;;8.30;99.90;;;;;;5052938;28;20174;-81
2022/02/16 03:28:08;;;;;;;0.60;0.50;;;8.30;99.90;;;;;;5053113;28;20598;-81
2022/02/16 03:30:34;;;;;;;0.77;0.50;;;8.30;99.90;;;;;;5052716;28;20238;-80
2022/02/16 03:33:06;;;;;;;2.40;0.60;;;8.20;99.90;;;;;;5051911;28;20257;-80
2022/02/16 03:35:32;;;;;;;0.80;0.60;;;8.20;99.90;;;;;;5053427;28;20636;-81
2022/02/16 03:37:58;;;;;;;0.52;0.40;;;8.30;99.90;;;;;;5052355;28;20203;-82
2022/02/16 03:40:24;;;;;;;0.70;0.50;;;8.30;99.90;;;;;;5052113;28;20202;-81
2022/02/16 03:42:50;;;;;;;0.80;0.50;;;8.30;99.90;;;;;;5051823;28;20196;-81
2022/02/16 03:45:16;;;;;;;0.60;0.40;;;8.30;99.90;;;;;;5053056;28;20448;-81
2022/02/16 03:47:42;;;;;;;0.60;0.60;;;8.30;99.90;;;;;;5052843;28;20909;-80
2022/02/16 03:50:08;;;;;;;0.50;0.40;;;8.30;99.90;;;;;;5051013;28;20491;-80
2022/02/16 03:52:33;;;;;;;0.60;0.50;;;8.40;99.90;;;;;;5053099;28;20178;-80
2022/02/16 03:54:59;;;;;;;0.60;0.50;;;8.40;99.90;;;;;;5052904;28;20605;-80
2022/02/16 03:57:24;;;;;;;0.97;0.50;;;8.40;99.90;;;;;;5051714;28;20185;-83
2022/02/16 03:59:50;;;;;;;0.60;0.40;;;8.40;99.90;;;;;;5054773;28;20201;-82
2022/02/16 04:02:15;;;;;;;0.70;0.50;;;8.40;99.90;;;;;;5055609;28;20308;-82
2022/02/16 04:04:41;;;;;;;1.20;0.50;;;8.50;99.90;;;;;;5056503;28;20190;-81
2022/02/16 04:07:07;;;;;;;2.03;0.50;;;8.50;99.90;;;;;;5056805;28;20170;-81
2022/02/16 04:09:33;;;;;;;0.60;0.43;;;8.60;99.90;;;;;;5054958;28;20226;-82
2022/02/16 04:11:58;;;;;;;0.70;0.60;;;8.50;99.90;;;;;;5056581;28;20412;-81
2022/02/16 04:14:24;;;;;;;0.70;0.50;;;8.50;99.90;;;;;;5055187;28;20210;-79
2022/02/16 04:16:50;;;;;;;0.60;0.50;;;8.50;99.90;;;;;;5055425;28;20194;-80
2022/02/16 04:19:15;;;;;;;0.70;0.50;;;8.50;99.90;;;;;;5054731;28;20224;-80
2022/02/16 04:21:41;;;;;;;0.60;0.50;;;8.50;99.90;;;;;;5055070;28;20212;-81
2022/02/16 04:24:07;;;;;;;0.70;0.60;;;8.50;99.90;;;;;;5056207;28;20650;-82
2022/02/16 04:26:32;;;;;;;0.50;0.40;;;8.50;99.90;;;;;;5056321;28;20641;-81
2022/02/16 04:28:58;;;;;;;0.70;0.50;;;8.50;99.90;;;;;;5055920;28;20214;-80
2022/02/16 04:31:24;;;;;;;0.50;0.47;;;8.50;99.90;;;;;;5055918;28;20184;-79
2022/02/16 04:33:49;;;;;;;0.80;0.60;;;8.50;99.90;;;;;;5055653;28;20459;-80
2022/02/16 04:36:25;;;;;;;0.63;0.50;;;8.50;99.90;;;;;;5055133;28;20538;-80
2022/02/16 04:38:55;;;;;;;0.60;0.50;;;8.50;99.90;;;;;;5055203;28;21329;-81
2022/02/16 04:41:21;;;;;;;0.80;0.60;;;8.40;99.90;;;;;;5056344;28;20589;-81
2022/02/16 04:43:47;;;;;;;0.57;0.50;;;8.40;99.90;;;;;;5056262;28;20651;-80
2022/02/16 04:46:13;;;;;;;0.70;0.50;;;8.40;99.90;;;;;;5055759;28;20201;-78
2022/02/16 04:48:38;;;;;;;0.60;0.50;;;8.40;99.90;;;;;;5054149;28;20424;-81
2022/02/16 04:51:05;;;;;;;0.87;0.60;;;8.40;99.90;;;;;;5054702;28;20213;-79
2022/02/16 04:53:33;;;;;;;0.50;0.40;;;8.40;99.90;;;;;;5055833;28;20630;-79
2022/02/16 04:56:00;;;;;;;0.65;0.50;;;8.40;99.90;;;;;;5055815;28;20224;-80
2022/02/16 04:58:26;;;;;;;1.23;0.50;;;8.40;99.90;;;;;;5055387;28;20185;-80
2022/02/16 05:00:52;;;;;;;0.50;0.50;;;8.40;99.90;;;;;;5055643;28;20194;-79
2022/02/16 05:03:17;;;;;;;1.07;0.50;;;8.40;99.90;;;;;;5055898;28;20228;-80
2022/02/16 05:05:43;;;;;;;0.80;0.60;;;8.40;99.90;;;;;;5055807;28;20182;-80
2022/02/16 05:08:09;;;;;;;0.90;0.60;;;8.30;99.90;;;;;;5037854;28;20181;-81
2022/02/16 05:10:34;;;;;;;0.60;0.50;;;8.40;99.90;;;;;;5053858;28;20253;-79
2022/02/16 05:13:00;;;;;;;0.70;0.50;;;8.30;99.90;;;;;;5055751;28;20586;-80
2022/02/16 05:15:25;;;;;;;1.27;0.50;;;8.40;99.90;;;;;;5055457;28;20208;-81
2022/02/16 05:17:51;;;;;;;0.60;0.60;;;8.40;99.90;;;;;;5055464;28;20261;-79
2022/02/16 05:20:17;;;;;;;1.03;1.03;;;8.40;99.90;;;;;;5053546;28;20248;-81
2022/02/16 05:22:42;;;;;;;1.50;0.60;;;8.40;99.90;;;;;;5054008;28;20185;-81
2022/02/16 05:25:08;;;;;;;0.60;0.50;;;8.40;99.90;;;;;;5054993;28;20333;-81
2022/02/16 05:27:34;;;;;;;0.60;0.50;;;8.50;99.90;;;;;;5055208;28;20175;-80
2022/02/16 05:30:00;;;;;;;0.60;0.60;;;8.50;99.90;;;;;;5054821;28;20542;-80
2022/02/16 05:32:25;;;;;;;0.70;0.50;;;8.60;99.90;;;;;;5055106;28;20178;-81
2022/02/16 05:34:51;;;;;;;0.60;0.50;;;8.60;99.90;;;;;;5053684;28;20213;-79
2022/02/16 05:37:16;;;;;;;0.87;0.53;;;8.60;99.90;;;;;;5055205;28;20257;-80
2022/02/16 05:39:42;;;;;;;0.57;0.50;;;8.60;99.90;;;;;;5054531;28;20209;-80
2022/02/16 05:42:08;;;;;;;0.73;0.53;;;8.60;99.90;;;;;;5055012;28;20182;-80
2022/02/16 05:44:34;;;;;;;1.15;0.50;;;8.70;99.90;;;;;;5054931;28;20542;-79
2022/02/16 05:47:00;;;;;;;0.60;0.50;;;8.70;99.90;;;;;;5054533;28;20194;-80
2022/02/16 05:49:25;;;;;;;0.80;0.50;;;8.60;99.90;;;;;;5054431;28;20240;-80
2022/02/16 05:51:51;;;;;;;0.60;0.50;;;8.60;99.90;;;;;;5054867;28;20174;-81
2022/02/16 05:54:17;;;;;;;0.87;0.50;;;8.80;99.90;;;;;;5054580;28;20461;-80
2022/02/16 05:56:42;;;;;;;0.70;0.50;;;8.70;99.90;;;;;;5053475;28;20663;-80
2022/02/16 05:59:11;;;;;;;0.80;0.60;;;8.70;99.90;;;;;;5053308;28;20209;-80
2022/02/16 06:01:37;;;;;;;0.63;0.50;;;8.70;99.90;;;;;;5054748;28;20174;-81
2022/02/16 06:04:03;;;;;;;0.90;0.60;;;8.80;99.90;;;;;;5054283;28;20182;-79
2022/02/16 06:06:28;;;;;;;0.60;0.50;;;8.80;99.90;;;;;;5054531;28;20239;-80
2022/02/16 06:08:54;;;;;;;0.90;0.50;;;8.80;99.90;;;;;;5053507;28;20251;-80
2022/02/16 06:11:19;;;;;;;1.53;0.50;;;8.80;99.90;;;;;;5053107;28;20197;-81
2022/02/16 06:13:45;;;;;;;0.50;0.40;;;8.80;99.90;;;;;;5054286;28;20232;-81
2022/02/16 06:16:11;;;;;;;0.50;0.40;;;8.80;99.90;;;;;;5054481;28;20257;-80
2022/02/16 06:18:36;;;;;;;0.70;0.50;;;8.80;99.90;;;;;;5054002;28;20232;-80
2022/02/16 06:21:02;;;;;;;0.60;0.50;;;8.90;99.90;;;;;;5053998;28;20232;-80
2022/02/16 06:23:28;;;;;;;1.57;0.60;;;8.90;99.90;;;;;;5052643;28;20178;-79
2022/02/16 06:25:54;;;;;;;0.65;0.50;;;9.00;99.90;;;;;;5053730;28;20491;-78
2022/02/16 06:28:20;;;;;;;0.87;0.57;;;9.00;99.90;;;;;;5053956;28;20658;-80
2022/02/16 06:30:45;;;;;;;0.70;0.60;;;9.00;99.90;;;;;;5053397;28;20201;-80
2022/02/16 06:33:11;;;;;;;1.63;0.60;;;9.00;99.90;;;;;;5053638;28;20174;-80
2022/02/16 06:35:37;;;;;;;0.60;0.50;;;9.00;99.90;;;;;;5053823;28;20796;-80
2022/02/16 06:38:05;;;;;;;1.60;0.50;;;9.10;99.90;;;;;;5054029;28;20661;-80
2022/02/16 06:40:30;;;;;;;1.48;0.60;;;9.10;99.90;;;;;;5053523;28;20186;-80
2022/02/16 06:42:56;;;;;;;0.60;0.50;;;9.20;99.90;;;;;;5054059;28;20174;-81
2022/02/16 06:45:21;;;;;;;0.77;0.50;;;9.20;99.90;;;;;;5053823;28;20178;-80
2022/02/16 06:47:47;;;;;;;0.67;0.60;;;9.20;99.90;;;;;;5053835;28;20188;-81
2022/02/16 06:50:13;;;;;;;0.60;0.50;;;9.20;99.90;;;;;;5053392;28;20204;-81
2022/02/16 06:52:39;;;;;;;0.60;0.50;;;9.20;99.90;;;;;;5053502;28;20522;-78
2022/02/16 06:55:05;;;;;;;0.60;0.50;;;9.20;99.90;;;;;;5052350;28;20629;-79
2022/02/16 06:57:31;;;;;;;0.50;0.40;;;9.20;99.90;;;;;;5053421;28;20500;-79
2022/02/16 06:59:57;;;;;;;1.13;0.50;;;9.20;99.90;;;;;;5053224;28;20285;-80
2022/02/16 07:02:22;;;;;;;0.57;0.47;;;9.30;99.90;;;;;;5053578;28;20322;-79
2022/02/16 07:04:48;;;;;;;0.70;0.50;;;9.30;99.90;;;;;;5052431;28;20174;-79
2022/02/16 07:07:14;;;;;;;0.60;0.50;;;9.30;99.90;;;;;;5053424;28;20512;-79
2022/02/16 07:09:40;;;;;;;0.60;0.50;;;9.30;99.90;;;;;;5052945;28;20748;-79
2022/02/16 07:12:06;;;;;;;0.60;0.40;;;9.30;99.90;;;;;;5053448;28;20182;-79
2022/02/16 07:14:32;;;;;;;0.70;0.50;;;9.40;99.90;;;;;;5051735;28;20690;-80
2022/02/16 07:16:59;;;;;;;0.50;0.40;;;9.40;99.90;;;;;;5053282;28;20188;-80
2022/02/16 07:19:26;;;;;;;0.90;0.40;;;9.50;99.90;;;;;;5052774;28;20194;-79
2022/02/16 07:21:57;;;;;;;0.70;0.50;;;9.40;99.90;;;;;;5053214;28;20171;-80
2022/02/16 07:24:24;;;;;;;0.60;0.50;;;9.50;99.90;;;;;;5053229;28;20193;-80
2022/02/16 07:26:49;;;;;;;0.70;0.50;;;9.50;99.90;;;;;;5053178;28;20178;-79
2022/02/16 07:29:15;;;;;;;0.60;0.50;;;9.40;99.90;;;;;;5051582;28;20198;-80
2022/02/16 07:31:41;;;;;;;0.80;0.40;;;9.50;99.90;;;;;;5052897;28;20420;-80
2022/02/16 07:34:07;;;;;;;0.60;0.50;;;9.50;99.90;;;;;;5052613;28;20482;-80
2022/02/16 07:36:33;;;;;;;1.47;0.50;;;9.60;99.90;;;;;;5052960;28;20185;-79
2022/02/16 07:38:59;;;;;;;1.00;0.50;;;9.60;99.90;;;;;;5049394;28;20253;-80
2022/02/16 07:41:25;;;;;;;2.35;0.60;;;9.70;99.90;;;;;;5035501;28;20475;-80
2022/02/16 07:43:50;;;;;;;0.77;0.77;;;9.70;99.90;;;;;;5032916;28;20194;-79
2022/02/16 07:46:18;;;;;;;0.83;0.50;;;9.70;99.90;;;;;;5033071;28;20184;-79
2022/02/16 07:48:44;;;;;;;0.60;0.40;;;9.70;99.90;;;;;;5031592;28;20422;-79
2022/02/16 07:51:10;;;;;;;3.53;0.55;;;9.60;99.90;;;;;;5032886;28;20206;-79
2022/02/16 07:53:37;;;;;;;0.60;0.50;;;9.60;99.90;;;;;;5032789;28;20562;-80
2022/02/16 07:56:03;;;;;;;1.00;0.50;;;9.60;99.90;;;;;;5033111;28;20441;-78
2022/02/16 07:58:29;;;;;;;0.98;0.70;;;9.60;99.90;;;;;;5032732;28;20182;-79
2022/02/16 08:00:55;;;;;;;0.60;0.50;;;9.70;99.90;;;;;;5031491;28;20202;-79
2022/02/16 08:03:21;;;;;;;0.60;0.50;;;9.70;99.90;;;;;;5033070;28;20258;-81
2022/02/16 08:05:46;;;;;;;0.73;0.40;;;9.90;99.90;;;;;;5032658;28;20194;-81
2022/02/16 08:08:12;;;;;;;0.57;0.43;;;9.90;99.90;;;;;;5031708;28;20860;-80
2022/02/16 08:10:38;;;;;;;0.60;0.40;;;10.00;99.90;;;;;;5031047;28;20250;-79
2022/02/16 08:13:04;;;;;;;0.87;0.50;;;10.00;99.90;;;;;;5032830;28;20171;-81
2022/02/16 08:15:35;;;;;;;0.60;0.50;;;10.30;99.90;;;;;;5032651;28;20205;-80
2022/02/16 08:18:01;;;;;;;0.50;0.40;;;10.40;99.90;;;;;;5031451;28;20266;-80
2022/02/16 08:20:27;;;;;;;0.60;0.50;;;10.40;99.90;;;;;;5032433;28;20213;-81
2022/02/16 08:22:53;;;;;;;0.70;0.50;;;10.40;99.90;;;;;;5032936;28;20179;-82
2022/02/16 08:25:19;;;;;;;0.67;0.43;;;10.50;99.90;;;;;;5033066;28;20189;-80
2022/02/16 08:27:45;;;;;;;0.60;0.50;;;10.50;99.90;;;;;;5031687;28;20278;-81
2022/02/16 08:30:12;;;;;;;0.60;0.50;;;10.40;99.90;;;;;;5032168;28;20281;-81
2022/02/16 08:32:39;;;;;;;1.23;0.50;;;10.50;99.90;;;;;;5032738;28;20241;-80
2022/02/16 08:35:09;;;;;;;0.80;0.50;;;10.40;99.90;;;;;;5032454;28;20203;-81
2022/02/16 08:37:35;;;;;;;1.00;0.55;;;10.30;99.90;;;;;;5032624;28;20186;-80
2022/02/16 08:40:04;;;;;;;0.90;0.50;;;10.30;99.90;;;;;;5032434;28;20206;-81
2022/02/16 08:42:34;;;;;;;0.60;0.50;;;10.30;99.90;;;;;;5032411;28;20265;-81
2022/02/16 08:45:00;;;;;;;0.70;0.60;;;10.40;99.90;;;;;;5031495;28;20175;-80
2022/02/16 08:47:26;;;;;;;0.70;0.50;;;10.40;99.90;;;;;;5035634;28;20178;-80
2022/02/16 08:49:52;;;;;;;0.60;0.47;;;10.50;99.90;;;;;;5035698;28;20195;-81
2022/02/16 08:52:17;;;;;;;0.70;0.50;;;10.50;99.90;;;;;;5036077;28;20186;-81
2022/02/16 08:54:43;;;;;;;0.70;0.40;;;10.60;99.90;;;;;;5036066;28;20668;-80
2022/02/16 08:57:09;;;;;;;0.70;0.50;;;10.70;99.90;;;;;;5036145;28;20620;-79
2022/02/16 08:59:34;;;;;;;1.10;0.53;;;10.80;99.90;;;;;;5035466;28;20203;-81
2022/02/16 09:02:00;;;;;;;0.50;0.40;;;10.80;99.90;;;;;;5035792;28;20410;-82
2022/02/16 09:04:26;;;;;;;0.60;0.40;;;10.90;99.90;;;;;;5035872;28;20202;-81
2022/02/16 09:09:40;;;;;;;0.68;0.50;;;11.10;99.90;;;;;;5034151;28;20220;-81
2022/02/16 09:12:06;;;;;;;0.88;0.50;;;11.20;99.90;;;;;;5035635;28;20564;-81
2022/02/16 09:14:32;;;;;;;0.60;0.40;;;11.30;99.90;;;;;;5035569;28;20550;-81
2022/02/16 09:16:59;;;;;;;0.50;0.40;;;11.30;99.90;;;;;;5035767;28;20237;-81
2022/02/16 09:19:24;;;;;;;0.50;0.40;;;11.30;99.90;;;;;;5035217;28;20198;-80
2022/02/16 09:21:51;;;;;;;0.50;0.40;;;11.30;99.90;;;;;;5035503;28;20182;-82
2022/02/16 09:24:18;;;;;;;0.50;0.40;;;11.40;99.90;;;;;;5035367;28;20175;-81
2022/02/16 09:26:44;;;;;;;1.40;0.50;;;11.40;99.90;;;;;;5035394;28;20179;-81
2022/02/16 09:29:10;;;;;;;0.57;0.40;;;11.50;99.90;;;;;;5033735;28;20301;-81
2022/02/16 09:31:36;;;;;;;0.50;0.40;;;11.50;99.90;;;;;;5033983;28;20681;-81
2022/02/16 09:34:02;;;;;;;0.50;0.40;;;11.50;99.90;;;;;;5035168;28;20230;-80
2022/02/16 09:36:30;;;;;;;0.60;0.40;;;11.60;99.90;;;;;;5035000;28;20459;-80
2022/02/16 09:38:56;;;;;;;0.60;0.40;;;11.60;99.90;;;;;;5034657;28;20263;-80
2022/02/16 09:41:22;;;;;;;0.50;0.40;;;11.70;99.90;;;;;;5035075;28;20290;-80
2022/02/16 09:43:49;;;;;;;0.55;0.40;;;11.70;99.90;;;;;;5033871;28;20194;-81
2022/02/16 09:46:16;;;;;;;0.50;0.40;;;11.70;99.90;;;;;;5033696;28;20670;-81
2022/02/16 09:48:42;;;;;;;0.50;0.40;;;11.80;99.90;;;;;;5034618;28;20194;-80
2022/02/16 09:51:07;;;;;;;0.80;0.60;;;11.90;99.90;;;;;;5033710;28;20206;-81
2022/02/16 09:53:33;;;;;;;0.70;0.50;;;11.90;99.90;;;;;;5034755;28;20177;-81
2022/02/16 09:56:00;;;;;;;0.60;0.40;;;11.90;99.90;;;;;;5034971;28;20408;-82
2022/02/16 09:58:26;;;;;;;0.60;0.40;;;11.90;99.90;;;;;;5033237;28;20658;-82
2022/02/16 10:01:13;;;;;;;0.50;0.40;;;12.00;99.90;;;;;;5033474;28;20230;-80
2022/02/16 10:03:56;;;;;;;0.50;0.40;;;12.00;99.90;;;;;;5034985;28;20205;-81
2022/02/16 10:06:42;;;;;;;0.60;0.50;;;11.90;99.90;;;;;;5034947;28;20210;-79
2022/02/16 10:09:21;;;;;;;0.60;0.50;;;11.90;99.90;;;;;;5034294;28;20237;-81
2022/02/16 10:11:52;;;;;;;0.60;0.40;;;12.00;99.90;;;;;;5033243;28;20582;-80
2022/02/16 10:14:20;;;;;;;0.60;0.50;;;12.00;99.90;;;;;;5034184;28;20268;-80
2022/02/16 10:16:47;;;;;;;0.60;0.50;;;12.00;99.90;;;;;;5035706;28;20182;-80
2022/02/16 10:19:14;;;;;;;0.57;0.47;;;12.00;99.90;;;;;;5033922;28;20193;-80
2022/02/16 10:22:05;;;;;;;0.50;0.40;;;12.10;99.90;;;;;;5034318;28;20179;-79
2022/02/16 10:24:32;;;;;;;0.80;0.50;;;12.20;99.90;;;;;;5034169;28;20220;-80
2022/02/16 10:26:58;;;;;;;0.60;0.40;;;12.30;99.90;;;;;;5034158;28;20189;-80
2022/02/16 10:29:33;;;;;;;0.60;0.47;;;12.40;99.90;;;;;;5033810;28;20289;-80
2022/02/16 10:31:59;;;;;;;1.27;0.50;;;12.60;99.90;;;;;;5034168;28;20772;-80
2022/02/16 10:34:50;;;;;;;0.82;0.50;;;12.60;99.90;;;;;;5033918;28;20210;-80
2022/02/16 10:37:20;;;;;;;1.95;0.50;;;12.60;99.90;;;;;;5033781;28;20178;-80
2022/02/16 10:40:25;;;;;;;0.80;0.50;;;12.60;99.90;;;;;;5033562;28;20263;-80
2022/02/16 10:43:01;;;;;;;0.82;0.50;;;12.50;99.90;;;;;;5033440;28;20421;-80
2022/02/16 10:45:29;;;;;;;0.60;0.40;;;12.50;99.90;;;;;;5033798;28;20654;-79
2022/02/16 10:48:01;;;;;;;1.25;0.50;;;12.50;99.90;;;;;;5033856;28;20409;-80
2022/02/16 10:50:30;;;;;;;1.27;0.50;;;12.50;99.90;;;;;;5033657;28;20195;-80
2022/02/16 10:53:06;;;;;;;0.70;0.50;;;12.50;99.90;;;;;;5033983;28;20175;-80
2022/02/16 10:55:44;;;;;;;0.80;0.60;;;12.50;99.90;;;;;;5032542;28;20295;-80
2022/02/16 10:58:28;;;;;;;0.80;0.57;;;12.60;99.90;;;;;;5033675;28;20170;-79
2022/02/16 11:00:56;;;;;;;0.60;0.50;;;12.60;99.90;;;;;;5032167;28;20687;-80
2022/02/16 11:03:36;;;;;;;1.52;0.50;;;12.50;99.90;;;;;;5033567;28;20186;-80
2022/02/16 11:06:06;;;;;;;1.80;0.50;;;12.70;99.90;;;;;;5033603;28;20194;-80
2022/02/16 11:08:32;;;;;;;0.50;0.40;;;12.70;99.90;;;;;;5032801;28;20533;-80
2022/02/16 11:11:03;;;;;;;0.60;0.40;;;12.60;99.90;;;;;;5033103;28;20214;-79
2022/02/16 11:13:33;;;;;;;1.58;0.65;;;12.60;99.90;;;;;;5032003;28;20185;-79
2022/02/16 11:16:00;;;;;;;0.60;0.50;;;12.60;99.90;;;;;;5033419;28;20183;-81
2022/02/16 11:18:28;;;;;;;1.50;0.60;;;12.60;99.90;;;;;;5033505;28;20175;-81
2022/02/16 11:21:06;;;;;;;2.23;0.50;;;12.60;99.90;;;;;;5032992;28;20221;-81
2022/02/16 11:23:44;;;;;;;0.60;0.50;;;12.60;99.90;;;;;;5032653;28;20410;-81
2022/02/16 11:26:45;;;;;;;1.08;0.57;;;12.60;99.90;;;;;;5033385;28;20209;-82
2022/02/16 11:29:25;;;;;;;1.60;0.60;;;12.70;99.90;;;;;;5032868;28;20197;-80
2022/02/16 11:31:52;;;;;;;0.80;0.50;;;12.70;99.90;;;;;;5033098;28;20217;-81
2022/02/16 11:34:23;;;;;;;0.70;0.50;;;12.80;99.90;;;;;;5033005;28;20461;-81
2022/02/16 11:36:54;;;;;;;0.70;0.60;;;12.80;99.90;;;;;;5033134;28;20256;-81
2022/02/16 11:39:49;;;;;;;0.60;0.50;;;12.80;99.90;;;;;;5031306;28;20433;-81
2022/02/16 11:42:17;;;;;;;0.63;0.50;;;12.80;99.90;;;;;;5031765;28;20190;-81
2022/02/16 11:44:51;;;;;;;0.83;0.40;;;12.80;99.90;;;;;;5033030;28;20421;-81
2022/02/16 11:47:39;;;;;;;0.90;0.60;;;12.80;99.90;;;;;;5032745;28;20416;-81
2022/02/16 11:50:14;;;;;;;0.50;0.40;;;12.80;99.90;;;;;;5032646;28;20489;-81
2022/02/16 11:52:43;;;;;;;0.70;0.40;;;12.90;99.90;;;;;;5033015;28;20223;-81
2022/02/16 11:55:33;;;;;;;1.10;0.50;;;12.90;99.90;;;;;;5032818;28;20300;-81
2022/02/16 11:58:01;;;;;;;0.60;0.50;;;12.90;99.90;;;;;;5032884;28;20488;-81
2022/02/16 12:00:55;;;;;;;0.63;0.50;;;12.90;99.90;;;;;;5032516;28;20202;-81
2022/02/16 12:03:29;;;;;;;0.80;0.60;;;13.00;99.90;;;;;;5033084;28;20409;-81
2022/02/16 12:06:00;;;;;;;0.70;0.50;;;13.00;99.90;;;;;;5031962;28;20452;-81
2022/02/16 12:08:29;;;;;;;1.43;0.93;;;13.00;99.90;;;;;;5033046;28;20409;-81
2022/02/16 12:10:58;;;;;;;0.60;0.50;;;13.10;99.90;;;;;;5032310;28;20537;-81
2022/02/16 12:13:27;;;;;;;0.73;0.50;;;13.10;99.90;;;;;;5032932;28;20420;-81
2022/02/16 12:16:10;;;;;;;0.77;0.50;;;13.20;99.90;;;;;;5032720;28;20464;-81
2022/02/16 12:18:37;;;;;;;1.00;0.60;;;13.20;99.90;;;;;;5032496;28;20467;-82
2022/02/16 12:21:04;;;;;;;0.87;0.53;;;13.30;99.90;;;;;;5035281;28;20469;-81
2022/02/16 12:23:31;;;;;;;0.60;0.50;;;13.30;99.90;;;;;;5018811;28;20922;-82
2022/02/16 12:26:11;;;;;;;0.70;0.53;;;13.40;99.90;;;;;;5035308;28;20417;-81
2022/02/16 12:28:47;;;;;;;0.60;0.43;;;13.40;99.90;;;;;;5038804;28;20416;-81
2022/02/16 12:31:14;;;;;;;0.67;0.60;;;13.40;99.90;;;;;;5044642;28;20420;-81
2022/02/16 12:33:40;;;;;;;1.27;0.50;;;13.40;99.90;;;;;;5053250;28;20426;-80
2022/02/16 12:36:06;;;;;;;0.90;0.60;;;13.40;99.90;;;;;;5054950;28;20418;-81
2022/02/16 12:38:33;;;;;;;0.60;0.50;;;13.50;99.90;;;;;;5056127;28;20446;-81
2022/02/16 12:41:07;;;;;;;3.00;0.60;;;13.60;99.90;;;;;;5055880;28;20911;-81
2022/02/16 12:43:33;;;;;;;2.90;0.50;;;13.60;99.90;;;;;;5056155;28;20426;-81
2022/02/16 12:46:00;;;;;;;0.70;0.50;;;13.70;99.90;;;;;;5055966;28;20415;-82
2022/02/16 12:48:25;;;;;;;9.53;0.60;;;13.60;99.90;;;;;;5055891;28;20408;-81
2022/02/16 12:51:02;;;;;;;0.70;0.50;;;13.60;99.90;;;;;;5055716;28;20455;-82
2022/02/16 12:53:37;;;;;;;2.00;0.60;;;13.60;99.90;;;;;;5055958;28;20158;-82
2022/02/16 12:56:10;;;;;;;1.00;0.63;;;13.50;99.90;;;;;;5056145;28;20419;-82
2022/02/16 12:58:35;;;;;;;1.10;0.80;;;13.60;99.90;;;;;;5055792;28;20409;-83